createdAt,value
2023-03-02T00:01:09.562Z,74.10
2023-03-02T00:06:12.163Z,84.00
2023-03-02T00:11:15.701Z,90.40
2023-03-02T00:16:19.071Z,91.60
2023-03-02T00:21:21.302Z,87.90
2023-03-02T00:26:23.383Z,85.00
2023-03-02T00:31:25.831Z,77.20
2023-03-02T00:36:28.624Z,72.70
2023-03-02T00:41:34.253Z,70.40
2023-03-02T00:46:37.301Z,73.10
2023-03-02T00:51:40.961Z,80.10
2023-03-02T00:56:45.305Z,82.80
2023-03-02T01:01:57.824Z,86.20
2023-03-02T01:07:04.835Z,77.30
2023-03-02T01:12:11.359Z,79.40
2023-03-02T01:17:15.069Z,79.50
2023-03-02T01:22:18.626Z,77.30
2023-03-02T01:27:21.160Z,77.40
2023-03-02T01:32:23.180Z,73.00
2023-03-02T01:37:25.661Z,72.90
2023-03-02T01:42:27.775Z,71.40
2023-03-02T01:47:36.793Z,70.20
2023-03-02T01:52:47.681Z,67.20
2023-03-02T01:57:53.918Z,69.50
2023-03-02T02:03:09.022Z,71.20
2023-03-02T02:08:11.289Z,72.80
2023-03-02T02:13:13.628Z,72.70
2023-03-02T02:18:16.102Z,71.50
2023-03-02T02:23:30.003Z,71.70
2023-03-02T02:28:37.571Z,70.00
2023-03-02T02:33:43.778Z,73.90
2023-03-02T02:38:48.586Z,71.50
2023-03-02T02:43:52.342Z,71.90
2023-03-02T02:48:54.401Z,70.50
2023-03-02T02:53:59.157Z,69.90
2023-03-02T02:59:16.429Z,69.40
2023-03-02T03:04:22.164Z,74.60
2023-03-02T03:09:26.291Z,72.40
2023-03-02T03:14:34.411Z,74.50
2023-03-02T03:19:36.497Z,78.20
2023-03-02T03:24:39.915Z,75.80
2023-03-02T03:29:45.024Z,80.30
2023-03-02T03:34:48.137Z,79.60
2023-03-02T03:40:09.574Z,87.90
2023-03-02T03:45:13.074Z,84.70
2023-03-02T03:50:16.449Z,81.90
2023-03-02T03:55:19.589Z,86.00
2023-03-02T04:00:24.294Z,84.20
2023-03-02T04:05:33.474Z,85.50
2023-03-02T04:10:37.170Z,81.00
2023-03-02T04:15:41.863Z,72.40
2023-03-02T04:20:44.737Z,83.40
2023-03-02T04:25:47.801Z,89.90
2023-03-02T04:30:53.999Z,88.10
2023-03-02T04:35:56.678Z,89.30
2023-03-02T04:40:59.654Z,92.10
2023-03-02T04:46:04.818Z,86.70
2023-03-02T04:51:17.176Z,83.60
2023-03-02T04:56:19.409Z,82.70
2023-03-02T05:01:21.998Z,83.10
2023-03-02T05:06:27.857Z,82.70
2023-03-02T05:11:30.636Z,80.70
2023-03-02T05:16:36.361Z,75.30
2023-03-02T05:21:39.576Z,84.10
2023-03-02T05:26:41.758Z,77.00
2023-03-02T05:31:45.944Z,76.70
2023-03-02T05:36:48.124Z,78.20
2023-03-02T05:41:50.660Z,75.40
2023-03-02T05:46:52.905Z,72.70
2023-03-02T05:51:58.273Z,74.40
2023-03-02T05:57:00.356Z,82.40
2023-03-02T06:02:02.748Z,83.40
2023-03-02T06:07:06.168Z,72.10
2023-03-02T06:12:09.021Z,72.70
2023-03-02T06:17:11.119Z,76.50
2023-03-02T06:22:13.555Z,79.90
2023-03-02T06:27:16.212Z,76.00
2023-03-02T06:32:18.176Z,85.70
2023-03-02T06:37:20.785Z,86.40
2023-03-02T06:42:24.307Z,91.60
2023-03-02T06:47:26.192Z,87.00
2023-03-02T06:52:29.519Z,87.80
2023-03-02T06:57:34.507Z,85.80
2023-03-02T07:02:37.255Z,84.20
2023-03-02T07:07:39.985Z,82.80
2023-03-02T07:12:43.108Z,82.10
2023-03-02T07:17:46.326Z,75.90
2023-03-02T07:22:48.571Z,85.70
2023-03-02T07:27:51.222Z,74.40
2023-03-02T07:32:53.987Z,62.60
2023-03-02T07:37:55.989Z,57.60
2023-03-02T07:42:57.895Z,56.10
2023-03-02T07:48:00.213Z,55.30
2023-03-02T07:59:12.484Z,60.90
2023-03-02T08:04:14.471Z,49.00
2023-03-02T08:09:17.072Z,51.20
2023-03-02T08:14:19.398Z,52.00
2023-03-02T08:19:22.097Z,50.60
2023-03-02T08:24:24.649Z,53.10
2023-03-02T08:29:26.717Z,55.60
2023-03-02T08:34:28.878Z,54.40
2023-03-02T08:39:34.255Z,48.90
2023-03-02T08:44:36.210Z,49.20
2023-03-02T08:49:39.455Z,41.00
2023-03-02T08:54:42.189Z,41.00
2023-03-02T08:59:44.303Z,39.60
2023-03-02T09:04:46.509Z,35.00
2023-03-02T09:09:48.728Z,40.10
2023-03-02T09:14:50.612Z,46.10
2023-03-02T09:19:52.616Z,49.20
2023-03-02T09:24:54.753Z,44.50
2023-03-02T09:29:57.559Z,46.20
2023-03-02T09:34:59.577Z,43.70
2023-03-02T09:40:01.663Z,42.30
2023-03-02T09:45:15.713Z,42.80
2023-03-02T09:50:37.330Z,40.90
2023-03-02T09:55:39.446Z,40.60
2023-03-02T10:00:44.050Z,36.90
2023-03-02T10:05:55.461Z,32.00
2023-03-02T10:11:23.238Z,30.70
2023-03-02T10:16:44.426Z,28.80
2023-03-02T10:21:49.235Z,28.80
2023-03-02T10:26:58.569Z,27.50
2023-03-02T10:32:13.495Z,26.10
2023-03-02T10:37:19.885Z,24.20
2023-03-02T10:42:36.891Z,24.90
2023-03-02T10:47:38.921Z,22.70
2023-03-02T10:52:59.701Z,20.60
2023-03-02T10:58:21.676Z,20.30
2023-03-02T11:03:43.112Z,22.50
2023-03-02T11:08:45.309Z,21.30
2023-03-02T11:13:47.341Z,21.30
2023-03-02T11:19:03.775Z,15.30
2023-03-02T11:24:17.032Z,21.00
2023-03-02T11:29:41.868Z,19.30
2023-03-02T11:34:51.427Z,14.30
2023-03-02T11:40:21.516Z,13.90
2023-03-02T11:45:28.259Z,13.40
2023-03-02T11:50:34.763Z,11.90
2023-03-02T11:55:43.584Z,12.30
2023-03-02T12:00:47.706Z,14.70
2023-03-02T12:05:52.696Z,13.00
2023-03-02T12:11:01.534Z,12.40
2023-03-02T12:16:21.891Z,13.50
2023-03-02T12:21:25.766Z,13.50
2023-03-02T12:26:36.906Z,14.30
2023-03-02T12:31:53.410Z,12.90
2023-03-02T12:37:01.685Z,13.90
2023-03-02T12:42:47.593Z,15.00
2023-03-02T12:47:57.083Z,14.70
2023-03-02T12:53:09.140Z,15.00
2023-03-02T12:58:21.091Z,14.20
2023-03-02T13:03:26.357Z,14.30
2023-03-02T13:08:29.601Z,14.00
2023-03-02T13:13:43.530Z,13.40
2023-03-02T13:18:46.700Z,13.10
2023-03-02T13:23:54.558Z,13.40
2023-03-02T13:29:02.895Z,11.70
2023-03-02T13:34:05.002Z,12.20
2023-03-02T13:39:17.792Z,13.00
2023-03-02T13:44:23.260Z,13.20
2023-03-02T13:49:37.792Z,16.60
2023-03-02T13:54:44.236Z,14.90
2023-03-02T13:59:46.355Z,17.40
2023-03-02T14:04:48.496Z,17.10
2023-03-02T14:09:50.530Z,17.70
2023-03-02T14:14:54.500Z,16.50
2023-03-02T14:19:56.596Z,15.20
2023-03-02T14:24:58.842Z,14.10
2023-03-02T14:30:01.298Z,13.50
2023-03-02T14:35:04.109Z,13.50
2023-03-02T14:40:14.485Z,13.10
2023-03-02T14:45:17.288Z,11.50
2023-03-02T14:50:19.384Z,11.60
2023-03-02T14:55:26.513Z,11.30
2023-03-02T15:00:28.602Z,10.10
2023-03-02T15:05:32.020Z,11.50
2023-03-02T15:10:33.921Z,12.30
2023-03-02T15:15:36.666Z,11.00
2023-03-02T15:20:38.579Z,11.80
2023-03-02T15:25:40.886Z,12.10
2023-03-02T15:30:42.906Z,11.70
2023-03-02T15:35:44.855Z,12.20
2023-03-02T15:40:46.774Z,12.70
2023-03-02T15:45:49.194Z,13.50
2023-03-02T15:50:59.707Z,13.30
2023-03-02T15:56:09.160Z,14.70
2023-03-02T16:01:11.872Z,15.80
2023-03-02T16:06:15.913Z,16.50
2023-03-02T16:11:23.280Z,17.40
2023-03-02T16:16:26.326Z,14.20
2023-03-02T16:21:28.955Z,14.70
2023-03-02T16:26:36.663Z,13.90
2023-03-02T16:31:39.406Z,13.70
2023-03-02T16:36:42.187Z,12.90
2023-03-02T16:41:44.323Z,15.00
2023-03-02T16:46:46.579Z,15.40
2023-03-02T16:51:48.546Z,15.90
2023-03-02T16:56:50.517Z,15.30
2023-03-02T17:01:52.485Z,21.90
2023-03-02T17:07:01.773Z,16.60
2023-03-02T17:12:04.685Z,17.70
2023-03-02T17:17:06.598Z,19.20
2023-03-02T17:22:08.616Z,21.80
2023-03-02T17:27:24.178Z,22.80
2023-03-02T17:32:27.734Z,25.50
2023-03-02T17:37:30.495Z,24.60
2023-03-02T17:42:33.185Z,24.40
2023-03-02T17:47:35.663Z,60.20
2023-03-02T17:52:37.801Z,45.00
2023-03-02T17:57:39.786Z,32.60
2023-03-02T18:02:42.370Z,29.30
2023-03-02T18:07:44.423Z,31.20
2023-03-02T18:12:47.562Z,36.60
2023-03-02T18:17:49.659Z,37.90
2023-03-02T18:22:51.722Z,36.50
2023-03-02T18:27:56.059Z,32.60
2023-03-02T18:32:58.167Z,33.70
2023-03-02T18:38:00.369Z,37.10
2023-03-02T18:43:02.277Z,40.20
2023-03-02T18:48:04.419Z,38.30
2023-03-02T18:53:08.755Z,41.30
2023-03-02T18:58:19.900Z,42.70
2023-03-02T19:03:22.467Z,42.80
2023-03-02T19:08:25.265Z,40.60
2023-03-02T19:13:27.270Z,42.70
2023-03-02T19:18:29.355Z,42.40
2023-03-02T19:23:32.396Z,47.10
2023-03-02T19:28:35.096Z,37.90
2023-03-02T19:33:38.595Z,40.20
2023-03-02T19:38:44.595Z,40.20
2023-03-02T19:43:47.062Z,40.60
2023-03-02T19:48:48.953Z,40.20
2023-03-02T19:53:50.867Z,47.30
2023-03-02T19:58:54.220Z,52.20
2023-03-02T20:03:58.712Z,52.80
2023-03-02T20:09:03.897Z,50.20
2023-03-02T20:14:07.144Z,54.00
2023-03-02T20:19:09.273Z,51.90
2023-03-02T20:24:11.505Z,51.70
2023-03-02T20:29:15.151Z,46.10
2023-03-02T20:34:17.208Z,43.60
2023-03-02T20:39:24.655Z,45.30
2023-03-02T20:44:27.084Z,46.90
2023-03-02T20:49:31.027Z,49.70
2023-03-02T20:54:36.894Z,51.50
2023-03-02T20:59:38.858Z,54.30
2023-03-02T21:04:41.747Z,53.40
2023-03-02T21:09:45.186Z,50.20
2023-03-02T21:14:47.391Z,56.40
2023-03-02T21:19:49.348Z,60.30
2023-03-02T21:24:53.042Z,56.20
2023-03-02T21:30:06.089Z,54.80
2023-03-02T21:35:08.356Z,52.90
2023-03-02T21:40:16.714Z,52.40
2023-03-02T21:45:19.031Z,50.10
2023-03-02T21:50:24.101Z,53.80
2023-03-02T21:55:27.716Z,55.20
2023-03-02T22:00:32.715Z,56.60
2023-03-02T22:05:35.369Z,55.50
2023-03-02T22:10:48.440Z,60.10
2023-03-02T22:16:10.966Z,60.50
2023-03-02T22:21:25.248Z,56.40
2023-03-02T22:26:27.500Z,57.50
2023-03-02T22:31:29.513Z,57.80
2023-03-02T22:36:31.741Z,60.60
2023-03-02T22:42:06.497Z,61.40
2023-03-02T22:47:15.785Z,71.50
2023-03-02T22:52:25.352Z,69.10
2023-03-02T22:57:27.219Z,59.90
2023-03-02T23:02:29.314Z,59.20
2023-03-02T23:07:31.776Z,56.70
2023-03-02T23:12:35.158Z,55.90
2023-03-02T23:17:40.575Z,62.30
2023-03-02T23:22:43.288Z,59.90
2023-03-02T23:27:45.123Z,59.00
2023-03-02T23:32:47.119Z,58.20
2023-03-02T23:37:49.115Z,58.70
2023-03-02T23:42:51.189Z,59.40
2023-03-02T23:47:53.154Z,59.00
2023-03-02T23:52:55.030Z,56.40
2023-03-02T23:57:56.948Z,57.70
